createdAt,value
2023-06-29T00:01:43.967Z,101648.66
2023-06-29T00:04:12.833Z,101650.56
2023-06-29T00:06:41.787Z,101649.72
2023-06-29T00:09:08.467Z,101620.16
2023-06-29T00:11:35.186Z,101630.44
2023-06-29T00:14:04.012Z,101627.88
2023-06-29T00:16:33.036Z,101640.75
2023-06-29T00:19:01.545Z,101626.16
2023-06-29T00:21:31.242Z,101630.03
2023-06-29T00:23:57.829Z,101620.59
2023-06-29T00:26:30.097Z,101621.69
2023-06-29T00:28:58.012Z,101627.03
2023-06-29T00:31:25.628Z,101619.09
2023-06-29T00:33:52.522Z,101627.88
2023-06-29T00:36:19.538Z,101622.31
2023-06-29T00:38:46.310Z,101609.25
2023-06-29T00:41:12.936Z,101617.81
2023-06-29T00:43:42.411Z,101603.47
2023-06-29T00:46:09.358Z,101605.00
2023-06-29T00:48:37.522Z,101613.56
2023-06-29T00:51:05.326Z,101605.41
2023-06-29T00:53:34.555Z,101595.75
2023-06-29T00:56:03.715Z,101604.78
2023-06-29T00:58:30.759Z,101603.06
2023-06-29T01:00:58.874Z,101603.25
2023-06-29T01:03:25.735Z,101604.13
2023-06-29T01:05:57.281Z,101583.16
2023-06-29T01:08:30.590Z,101593.22
2023-06-29T01:10:58.802Z,101587.00
2023-06-29T01:13:27.613Z,101584.66
2023-06-29T01:15:58.560Z,101582.06
2023-06-29T01:18:31.805Z,101582.06
2023-06-29T01:21:00.222Z,101586.56
2023-06-29T01:23:31.238Z,101597.47
2023-06-29T01:25:58.718Z,101592.97
2023-06-29T01:28:25.851Z,101504.25
2023-06-29T01:30:57.224Z,101593.38
2023-06-29T01:33:28.196Z,101589.75
2023-06-29T01:36:38.378Z,101585.66
2023-06-29T01:39:14.981Z,101579.91
2023-06-29T01:41:44.392Z,101576.28
2023-06-29T01:44:20.087Z,101573.94
2023-06-29T01:46:48.877Z,101550.81
2023-06-29T01:49:18.372Z,101578.84
2023-06-29T01:51:47.965Z,101577.31
2023-06-29T01:54:14.625Z,101571.56
2023-06-29T01:56:41.295Z,101581.59
2023-06-29T01:59:08.031Z,101576.47
2023-06-29T02:01:36.796Z,101573.03
2023-06-29T02:04:04.081Z,101565.78
2023-06-29T02:06:30.692Z,101556.81
2023-06-29T02:08:57.286Z,101564.50
2023-06-29T02:11:24.020Z,101554.66
2023-06-29T02:13:50.766Z,101565.56
2023-06-29T02:16:17.612Z,101556.13
2023-06-29T02:18:44.525Z,101566.63
2023-06-29T02:21:11.321Z,101553.75
2023-06-29T02:23:38.057Z,101550.81
2023-06-29T02:26:04.678Z,101554.22
2023-06-29T02:28:33.858Z,101550.38
2023-06-29T02:31:00.551Z,101527.88
2023-06-29T02:33:27.412Z,101534.75
2023-06-29T02:35:57.361Z,101536.22
2023-06-29T02:38:26.516Z,101531.56
2023-06-29T02:40:53.348Z,101541.00
2023-06-29T02:43:22.395Z,101527.06
2023-06-29T02:45:51.285Z,101532.88
2023-06-29T02:48:17.974Z,101528.31
2023-06-29T02:50:44.532Z,101537.09
2023-06-29T02:53:14.689Z,101528.97
2023-06-29T02:55:43.750Z,101514.41
2023-06-29T02:58:21.281Z,101517.19
2023-06-29T03:00:50.553Z,101524.25
2023-06-29T03:03:17.321Z,101524.44
2023-06-29T03:05:48.874Z,101527.44
2023-06-29T03:08:20.388Z,101523.81
2023-06-29T03:10:47.092Z,101524.00
2023-06-29T03:13:13.763Z,101509.00
2023-06-29T03:15:40.467Z,101517.34
2023-06-29T03:18:07.199Z,101516.25
2023-06-29T03:20:33.850Z,101522.06
2023-06-29T03:23:00.471Z,101527.19
2023-06-29T03:25:29.400Z,101526.75
2023-06-29T03:27:56.032Z,101529.53
2023-06-29T03:30:24.924Z,101527.81
2023-06-29T03:32:54.414Z,101517.13
2023-06-29T03:35:21.688Z,101506.81
2023-06-29T03:37:48.475Z,101502.34
2023-06-29T03:40:15.099Z,101508.75
2023-06-29T03:42:41.708Z,101516.47
2023-06-29T03:45:11.801Z,101483.91
2023-06-29T03:47:38.772Z,101501.03
2023-06-29T03:50:05.890Z,101504.25
2023-06-29T03:52:32.537Z,101513.69
2023-06-29T03:54:59.139Z,101515.59
2023-06-29T03:57:25.765Z,101515.59
2023-06-29T03:59:52.362Z,101501.72
2023-06-29T04:02:19.240Z,101507.47
2023-06-29T04:04:46.852Z,101503.44
2023-06-29T04:07:14.643Z,101497.25
2023-06-29T04:09:41.288Z,101497.06
2023-06-29T04:12:08.519Z,101498.75
2023-06-29T04:14:35.168Z,101500.91
2023-06-29T04:17:01.970Z,101495.34
2023-06-29T04:19:28.573Z,101488.31
2023-06-29T04:21:55.167Z,101486.59
2023-06-29T04:24:24.668Z,101487.25
2023-06-29T04:26:53.567Z,101483.63
2023-06-29T04:29:21.656Z,101477.22
2023-06-29T04:31:53.169Z,101489.00
2023-06-29T04:34:20.136Z,101489.19
2023-06-29T04:36:47.314Z,101488.78
2023-06-29T04:39:25.676Z,101491.34
2023-06-29T04:42:04.643Z,101486.84
2023-06-29T04:44:35.836Z,101481.50
2023-06-29T04:47:05.196Z,101487.06
2023-06-29T04:52:21.196Z,101479.63
2023-06-29T04:54:49.426Z,101479.63
2023-06-29T04:57:16.674Z,101478.53
2023-06-29T04:59:45.070Z,101472.13
2023-06-29T05:02:13.835Z,101466.19
2023-06-29T05:04:45.338Z,101473.22
2023-06-29T05:07:17.368Z,101464.47
2023-06-29T05:09:45.694Z,101479.03
2023-06-29T05:12:22.525Z,101473.94
2023-06-29T05:14:54.268Z,101472.66
2023-06-29T05:17:20.884Z,101468.22
2023-06-29T05:19:49.846Z,101459.84
2023-06-29T05:22:16.485Z,101460.09
2023-06-29T05:24:43.294Z,101465.25
2023-06-29T05:27:10.011Z,101459.91
2023-06-29T05:29:39.281Z,101465.25
2023-06-29T05:32:06.609Z,101461.63
2023-06-29T05:34:36.785Z,101466.09
2023-06-29T05:37:03.831Z,101464.00
2023-06-29T05:39:30.560Z,101471.66
2023-06-29T05:41:57.255Z,101470.59
2023-06-29T05:44:23.842Z,101465.06
2023-06-29T05:46:52.708Z,101470.41
2023-06-29T05:49:21.886Z,101464.22
2023-06-29T05:51:48.449Z,101461.00
2023-06-29T05:54:15.199Z,101466.78
2023-06-29T05:56:41.867Z,101474.28
2023-06-29T05:59:08.470Z,101461.88
2023-06-29T06:01:36.501Z,101447.97
2023-06-29T06:04:07.361Z,101464.47
2023-06-29T06:06:34.059Z,101466.63
2023-06-29T06:09:03.401Z,101464.13
2023-06-29T06:11:30.190Z,101448.50
2023-06-29T06:13:56.990Z,101466.00
2023-06-29T06:16:23.666Z,101448.84
2023-06-29T06:18:50.377Z,101461.44
2023-06-29T06:21:17.052Z,101468.25
2023-06-29T06:23:43.931Z,101425.94
2023-06-29T06:26:12.614Z,101458.69
2023-06-29T06:28:41.491Z,101446.59
2023-06-29T06:31:12.574Z,101444.75
2023-06-29T06:33:47.294Z,101455.88
2023-06-29T06:36:13.928Z,101451.84
2023-06-29T06:38:48.726Z,101445.44
2023-06-29T06:41:21.510Z,101452.38
2023-06-29T06:43:48.226Z,101438.50
2023-06-29T06:46:14.842Z,101451.78
2023-06-29T06:48:41.761Z,101456.25
2023-06-29T06:51:08.358Z,101457.13
2023-06-29T06:53:35.095Z,101448.69
2023-06-29T06:56:01.835Z,101455.81
2023-06-29T06:58:28.530Z,101452.56
2023-06-29T07:00:57.475Z,101441.13
2023-06-29T07:03:25.557Z,101446.03
2023-06-29T07:05:54.620Z,101450.63
2023-06-29T07:08:21.335Z,101444.91
2023-06-29T07:10:52.634Z,101438.09
2023-06-29T07:13:19.673Z,101434.00
2023-06-29T07:15:51.706Z,101436.53
2023-06-29T07:18:18.432Z,101433.13
2023-06-29T07:25:45.134Z,101438.16
2023-06-29T07:28:14.334Z,101438.38
2023-06-29T07:30:43.198Z,101430.00
2023-06-29T07:33:09.922Z,101438.53
2023-06-29T07:35:39.041Z,101441.03
2023-06-29T07:38:05.731Z,101434.31
2023-06-29T07:40:32.958Z,101443.34
2023-06-29T07:42:59.588Z,101432.25
2023-06-29T07:45:26.224Z,101439.56
2023-06-29T07:47:57.768Z,101436.03
2023-06-29T07:50:27.216Z,101417.50
2023-06-29T07:52:56.193Z,101432.03
2023-06-29T07:55:25.153Z,101427.38
2023-06-29T08:00:26.151Z,101422.88
2023-06-29T08:02:52.952Z,101344.34
2023-06-29T08:07:50.881Z,101427.66
2023-06-29T08:10:18.256Z,101427.97
2023-06-29T08:12:45.058Z,101424.06
2023-06-29T08:15:11.778Z,101414.63
2023-06-29T08:17:38.572Z,101417.63
2023-06-29T08:20:13.248Z,101412.41
2023-06-29T08:22:41.682Z,101415.31
2023-06-29T08:25:08.864Z,101416.75
2023-06-29T08:27:36.907Z,101414.75
2023-06-29T08:30:06.900Z,101416.47
2023-06-29T08:32:39.758Z,101423.78
2023-06-29T08:35:07.411Z,101412.25
2023-06-29T08:37:34.492Z,101413.13
2023-06-29T08:40:03.333Z,101425.47
2023-06-29T08:42:31.341Z,101431.00
2023-06-29T08:45:00.501Z,101423.72
2023-06-29T08:47:46.697Z,101418.84
2023-06-29T08:50:15.630Z,101422.13
2023-06-29T08:52:44.646Z,101406.72
2023-06-29T08:55:14.260Z,101421.88
2023-06-29T08:57:41.135Z,101412.47
2023-06-29T09:00:10.375Z,101421.78
2023-06-29T09:02:44.046Z,101425.38
2023-06-29T09:05:14.766Z,101429.03
2023-06-29T09:07:43.764Z,101418.72
2023-06-29T09:11:52.912Z,101418.25
2023-06-29T09:13:10.648Z,101377.84
2023-06-29T09:15:43.640Z,101418.16
2023-06-29T09:18:11.935Z,101413.59
2023-06-29T09:20:38.913Z,101397.34
2023-06-29T09:23:05.722Z,101412.19
2023-06-29T09:25:39.581Z,101397.59
2023-06-29T09:28:10.117Z,101391.38
2023-06-29T09:30:39.291Z,101387.44
2023-06-29T09:33:11.501Z,101415.09
2023-06-29T09:35:41.983Z,101381.47
2023-06-29T09:38:08.645Z,101409.38
2023-06-29T09:40:47.704Z,101409.78
2023-06-29T09:43:22.085Z,101392.59
2023-06-29T09:45:49.350Z,101398.00
2023-06-29T09:50:53.746Z,101408.88
2023-06-29T09:53:34.402Z,101424.50
2023-06-29T09:56:03.444Z,101421.81
2023-06-29T09:58:31.757Z,101421.47
2023-06-29T10:00:59.718Z,101417.00
2023-06-29T10:03:28.540Z,101418.94
2023-06-29T10:05:58.834Z,101420.09
2023-06-29T10:08:28.407Z,101414.81
2023-06-29T10:11:03.433Z,101414.03
2023-06-29T10:13:38.728Z,101399.16
2023-06-29T10:16:10.102Z,101406.59
2023-06-29T10:18:44.353Z,101402.19
2023-06-29T10:21:11.731Z,101415.25
2023-06-29T10:23:46.626Z,101379.59
2023-06-29T10:26:13.853Z,101416.34
2023-06-29T10:28:41.542Z,101399.38
2023-06-29T10:31:08.221Z,101403.72
2023-06-29T10:33:46.843Z,101405.41
2023-06-29T10:36:19.580Z,101373.84
2023-06-29T10:38:46.291Z,101412.28
2023-06-29T10:41:29.895Z,101406.31
2023-06-29T10:44:04.532Z,101400.97
2023-06-29T10:46:50.708Z,101381.78
2023-06-29T10:49:24.423Z,101406.03
2023-06-29T10:51:55.062Z,101404.38
2023-06-29T10:54:23.637Z,101389.34
2023-06-29T10:57:31.276Z,101401.88
2023-06-29T10:59:58.097Z,101394.34
2023-06-29T11:02:27.515Z,101401.72
2023-06-29T11:04:59.022Z,101401.19
2023-06-29T11:07:26.925Z,101392.81
2023-06-29T11:10:03.781Z,101389.50
2023-06-29T11:12:30.521Z,101392.75
2023-06-29T11:17:45.205Z,101383.97
2023-06-29T11:20:16.330Z,101368.09
2023-06-29T11:22:44.069Z,101388.66
2023-06-29T11:25:20.068Z,101295.06
2023-06-29T11:27:46.877Z,101374.50
2023-06-29T11:30:16.139Z,101383.03
2023-06-29T11:32:43.356Z,101371.59
2023-06-29T11:35:11.791Z,101379.16
2023-06-29T11:37:42.124Z,101373.94
2023-06-29T11:40:22.264Z,101365.03
2023-06-29T11:42:55.578Z,101369.00
2023-06-29T11:45:23.213Z,101359.47
2023-06-29T11:47:56.449Z,101326.81
2023-06-29T11:50:25.301Z,101359.31
2023-06-29T11:52:52.426Z,101366.72
2023-06-29T11:55:23.674Z,101366.25
2023-06-29T11:57:58.122Z,101359.59
2023-06-29T12:00:24.726Z,101355.97
2023-06-29T12:02:51.528Z,101357.69
2023-06-29T12:05:18.220Z,101358.81
2023-06-29T12:07:46.898Z,101354.00
2023-06-29T12:10:22.460Z,101348.34
2023-06-29T12:13:00.898Z,101338.44
2023-06-29T12:15:29.201Z,101343.31
2023-06-29T12:18:16.633Z,101342.44
2023-06-29T12:20:46.767Z,101326.09
2023-06-29T12:23:17.457Z,101326.13
2023-06-29T12:25:49.250Z,101327.31
2023-06-29T12:28:16.052Z,101327.31
2023-06-29T12:30:43.764Z,101335.16
2023-06-29T12:33:14.316Z,101326.97
2023-06-29T12:35:41.719Z,101318.00
2023-06-29T12:38:08.468Z,101293.50
2023-06-29T12:40:35.533Z,101323.66
2023-06-29T12:43:02.275Z,101321.34
2023-06-29T12:45:29.372Z,101323.88
2023-06-29T12:47:58.690Z,101316.53
2023-06-29T12:50:30.517Z,101304.50
2023-06-29T12:52:59.302Z,101313.78
2023-06-29T12:55:30.776Z,101311.53
2023-06-29T12:57:59.773Z,101300.53
2023-06-29T13:00:28.673Z,101304.13
2023-06-29T13:02:55.489Z,101304.97
2023-06-29T13:05:22.389Z,101324.06
2023-06-29T13:07:49.228Z,101321.03
2023-06-29T13:10:15.999Z,101366.78
2023-06-29T13:12:42.973Z,101362.50
2023-06-29T13:15:10.401Z,101368.44
2023-06-29T13:17:39.400Z,101379.53
2023-06-29T13:20:06.591Z,101382.78
2023-06-29T13:22:34.989Z,101385.13
2023-06-29T13:25:02.473Z,101370.19
2023-06-29T13:27:35.502Z,101378.81
2023-06-29T13:30:03.208Z,101384.91
2023-06-29T13:32:30.875Z,101380.81
2023-06-29T13:34:58.118Z,101360.63
2023-06-29T13:37:34.079Z,101392.41
2023-06-29T13:40:03.194Z,101390.03
2023-06-29T13:42:31.234Z,101378.72
2023-06-29T13:44:58.726Z,101375.75
2023-06-29T13:47:26.700Z,101384.22
2023-06-29T13:49:53.727Z,101383.50
2023-06-29T13:52:24.325Z,101376.72
2023-06-29T13:54:51.318Z,101387.97
2023-06-29T13:57:18.281Z,101390.03
2023-06-29T13:59:52.874Z,101377.13
2023-06-29T14:02:21.059Z,101381.09
2023-06-29T14:04:48.367Z,101373.97
2023-06-29T14:07:21.403Z,101380.75
2023-06-29T14:09:50.505Z,101366.06
2023-06-29T14:12:18.672Z,101362.41
2023-06-29T14:14:50.417Z,101369.25
2023-06-29T14:17:22.903Z,101363.28
2023-06-29T14:19:50.886Z,101342.38
2023-06-29T14:22:20.353Z,101345.66
2023-06-29T14:24:47.144Z,101357.44
2023-06-29T14:27:17.182Z,101362.19
2023-06-29T14:29:43.969Z,101357.19
2023-06-29T14:32:10.585Z,101325.69
2023-06-29T14:34:37.280Z,101366.06
2023-06-29T14:37:04.046Z,101368.88
2023-06-29T14:39:31.828Z,101359.25
2023-06-29T14:42:00.045Z,101358.91
2023-06-29T14:44:26.736Z,101333.34
2023-06-29T14:46:53.428Z,101345.50
2023-06-29T14:49:20.158Z,101348.06
2023-06-29T14:51:46.839Z,101350.59
2023-06-29T14:54:20.303Z,101352.19
2023-06-29T14:56:47.106Z,101349.53
2023-06-29T14:59:13.881Z,101340.84
2023-06-29T15:01:40.738Z,101335.13
2023-06-29T15:04:07.682Z,101350.84
2023-06-29T15:06:34.396Z,101335.78
2023-06-29T15:09:03.594Z,101285.53
2023-06-29T15:11:32.542Z,101323.03
2023-06-29T15:13:59.211Z,101332.41
2023-06-29T15:16:27.934Z,101317.78
2023-06-29T15:19:00.319Z,101328.06
2023-06-29T15:21:30.141Z,101324.59
2023-06-29T15:23:56.788Z,101334.09
2023-06-29T15:26:28.621Z,101325.38
2023-06-29T15:28:55.231Z,101291.53
2023-06-29T15:31:21.919Z,101334.41
2023-06-29T15:33:48.669Z,101328.09
2023-06-29T15:36:15.454Z,101329.22
2023-06-29T15:38:42.297Z,101326.44
2023-06-29T15:41:08.913Z,101265.78
2023-06-29T15:43:42.985Z,101321.31
2023-06-29T15:46:14.242Z,101311.34
2023-06-29T15:48:45.400Z,101307.94
2023-06-29T15:51:12.242Z,101302.22
2023-06-29T15:53:40.808Z,101310.34
2023-06-29T15:56:08.335Z,101307.56
2023-06-29T15:58:40.335Z,101311.22
2023-06-29T16:01:10.784Z,101309.63
2023-06-29T16:03:37.504Z,101298.25
2023-06-29T16:06:04.230Z,101299.47
2023-06-29T16:08:33.150Z,101297.50
2023-06-29T16:10:59.862Z,101305.66
2023-06-29T16:13:28.861Z,101304.94
2023-06-29T16:15:55.649Z,101309.25
2023-06-29T16:18:22.364Z,101302.94
2023-06-29T16:20:49.858Z,101310.69
2023-06-29T16:23:16.505Z,101313.00
2023-06-29T16:25:43.489Z,101309.66
2023-06-29T16:28:10.429Z,101317.53
2023-06-29T16:30:37.094Z,101319.72
2023-06-29T16:33:03.990Z,101311.16
2023-06-29T16:35:31.238Z,101319.91
2023-06-29T16:37:57.916Z,101320.59
2023-06-29T16:40:29.456Z,101324.09
2023-06-29T16:42:57.904Z,101323.59
2023-06-29T16:45:26.344Z,101332.53
2023-06-29T16:47:54.838Z,101317.03
2023-06-29T16:50:26.497Z,101329.13
2023-06-29T16:52:53.057Z,101319.78
2023-06-29T16:55:19.692Z,101335.88
2023-06-29T16:57:46.433Z,101273.31
2023-06-29T17:00:18.861Z,101339.56
2023-06-29T17:02:48.114Z,101339.63
2023-06-29T17:05:14.857Z,101343.84
2023-06-29T17:07:41.627Z,101352.81
2023-06-29T17:10:08.520Z,101351.72
2023-06-29T17:12:35.463Z,101357.44
2023-06-29T17:15:02.153Z,101355.56
2023-06-29T17:17:28.974Z,101360.81
2023-06-29T17:19:55.729Z,101352.66
2023-06-29T17:22:22.671Z,101372.84
2023-06-29T17:24:49.273Z,101368.84
2023-06-29T17:27:16.348Z,101372.16
2023-06-29T17:29:43.259Z,101376.84
2023-06-29T17:32:10.245Z,101384.22
2023-06-29T17:34:37.758Z,101324.28
2023-06-29T17:37:04.554Z,101373.91
2023-06-29T17:39:33.581Z,101364.28
2023-06-29T17:42:00.529Z,101301.88
2023-06-29T17:44:27.487Z,101371.91
2023-06-29T17:46:54.302Z,101367.44
2023-06-29T17:49:22.223Z,101382.41
2023-06-29T17:51:48.870Z,101385.19
2023-06-29T17:54:15.831Z,101384.38
2023-06-29T17:56:44.719Z,101371.72
2023-06-29T17:59:14.417Z,101375.41
2023-06-29T18:01:41.086Z,101386.94
2023-06-29T18:04:08.038Z,101399.72
2023-06-29T18:06:34.805Z,101402.09
2023-06-29T18:09:01.728Z,101394.59
2023-06-29T18:11:28.844Z,101407.84
2023-06-29T18:13:55.570Z,101407.41
2023-06-29T18:16:22.480Z,101391.81
2023-06-29T18:18:49.190Z,101419.13
2023-06-29T18:21:15.919Z,101418.47
2023-06-29T18:23:42.661Z,101413.31
2023-06-29T18:26:09.307Z,101407.38
2023-06-29T18:28:36.052Z,101407.38
2023-06-29T18:31:02.892Z,101415.88
2023-06-29T18:33:29.987Z,101410.06
2023-06-29T18:35:56.636Z,101402.16
2023-06-29T18:38:25.631Z,101417.50
2023-06-29T18:40:52.304Z,101422.41
2023-06-29T18:43:21.294Z,101419.59
2023-06-29T18:45:48.165Z,101425.34
2023-06-29T18:48:15.216Z,101402.59
2023-06-29T18:50:42.620Z,101404.03
2023-06-29T18:53:09.348Z,101446.31
2023-06-29T18:55:36.653Z,101435.56
2023-06-29T18:58:03.444Z,101388.81
2023-06-29T19:00:32.377Z,101438.94
2023-06-29T19:02:59.130Z,101440.97
2023-06-29T19:05:28.006Z,101394.41
2023-06-29T19:07:54.909Z,101438.44
2023-06-29T19:10:21.660Z,101437.47
2023-06-29T19:12:50.600Z,101454.75
2023-06-29T19:15:17.354Z,101438.41
2023-06-29T19:17:44.165Z,101451.53
2023-06-29T19:20:11.604Z,101460.03
2023-06-29T19:22:38.229Z,101470.25
2023-06-29T19:25:05.412Z,101475.06
2023-06-29T19:27:32.122Z,101485.19
2023-06-29T19:29:58.836Z,101463.66
2023-06-29T19:32:25.532Z,101466.16
2023-06-29T19:34:52.225Z,101463.00
2023-06-29T19:37:19.052Z,101480.38
2023-06-29T19:39:45.621Z,101479.44
2023-06-29T19:42:12.386Z,101476.81
2023-06-29T19:44:39.054Z,101488.44
2023-06-29T19:47:05.762Z,101491.03
2023-06-29T19:49:32.740Z,101487.50
2023-06-29T19:52:02.240Z,101508.28
2023-06-29T19:54:33.456Z,101509.25
2023-06-29T19:57:00.103Z,101485.88
2023-06-29T19:59:32.073Z,101472.59
2023-06-29T20:01:58.712Z,101499.59
2023-06-29T20:04:27.736Z,101504.66
2023-06-29T20:06:54.586Z,101516.66
2023-06-29T20:09:24.225Z,101520.66
2023-06-29T20:11:50.964Z,101511.81
2023-06-29T20:14:17.625Z,101509.22
2023-06-29T20:16:47.549Z,101525.53
2023-06-29T20:19:16.768Z,101534.03
2023-06-29T20:21:43.452Z,101529.25
2023-06-29T20:24:10.582Z,101524.38
2023-06-29T20:26:44.022Z,101523.25
2023-06-29T20:29:10.652Z,101532.38
2023-06-29T20:31:37.435Z,101529.28
2023-06-29T20:34:04.241Z,101523.09
2023-06-29T20:36:30.866Z,101533.28
2023-06-29T20:38:57.550Z,101529.66
2023-06-29T20:41:24.567Z,101514.50
2023-06-29T20:43:54.332Z,101513.34
2023-06-29T20:46:20.934Z,101520.53
2023-06-29T20:48:47.600Z,101527.56
2023-06-29T20:51:18.218Z,101532.72
2023-06-29T20:53:47.421Z,101520.91
2023-06-29T20:56:14.096Z,101497.53
2023-06-29T20:58:41.005Z,101534.81
2023-06-29T21:01:08.056Z,101529.00
2023-06-29T21:03:38.978Z,101525.19
2023-06-29T21:06:05.845Z,101519.84
2023-06-29T21:08:32.496Z,101538.44
2023-06-29T21:10:59.127Z,101528.41
2023-06-29T21:13:26.118Z,101520.34
2023-06-29T21:15:53.054Z,101540.66
2023-06-29T21:18:20.541Z,101534.09
2023-06-29T21:20:47.575Z,101524.75
2023-06-29T21:23:14.358Z,101525.63
2023-06-29T21:25:43.945Z,101521.13
2023-06-29T21:28:12.253Z,101523.06
2023-06-29T21:30:39.186Z,101516.66
2023-06-29T21:33:06.318Z,101525.13
2023-06-29T21:35:35.764Z,101524.44
2023-06-29T21:38:03.251Z,101481.41
2023-06-29T21:40:29.888Z,101533.75
2023-06-29T21:42:56.498Z,101532.72
2023-06-29T21:45:26.038Z,101512.09
2023-06-29T21:47:54.931Z,101529.97
2023-06-29T21:50:21.688Z,101538.25
2023-06-29T21:52:48.303Z,101521.94
2023-06-29T21:55:15.579Z,101531.88
2023-06-29T21:57:46.966Z,101532.91
2023-06-29T22:00:14.347Z,101524.63
2023-06-29T22:02:43.813Z,101484.63
2023-06-29T22:05:11.819Z,101523.84
2023-06-29T22:07:38.546Z,101526.44
2023-06-29T22:10:08.483Z,101515.94
2023-06-29T22:12:42.640Z,101493.47
2023-06-29T22:15:12.820Z,101514.19
2023-06-29T22:17:43.437Z,101506.97
2023-06-29T22:20:23.521Z,101486.00
2023-06-29T22:22:50.461Z,101451.66
2023-06-29T22:25:18.005Z,101497.53
2023-06-29T22:27:44.837Z,101506.66
2023-06-29T22:30:11.689Z,101505.16
2023-06-29T22:32:41.806Z,101505.16
2023-06-29T22:35:12.438Z,101505.16
2023-06-29T22:37:39.112Z,101499.31
2023-06-29T22:40:06.952Z,101504.66
2023-06-29T22:42:33.613Z,101483.00
2023-06-29T22:45:00.248Z,101492.63
2023-06-29T22:47:29.292Z,101497.13
2023-06-29T22:49:56.026Z,101493.56
2023-06-29T22:52:24.128Z,101497.00
2023-06-29T22:54:53.669Z,101421.47
2023-06-29T22:57:23.691Z,101502.53
2023-06-29T22:59:50.827Z,101500.31
2023-06-29T23:02:18.406Z,101507.19
2023-06-29T23:04:45.315Z,101501.06
2023-06-29T23:07:12.411Z,101509.34
2023-06-29T23:09:39.085Z,101504.56
2023-06-29T23:12:06.160Z,101499.69
2023-06-29T23:14:36.345Z,101513.31
2023-06-29T23:17:06.012Z,101498.06
2023-06-29T23:19:35.401Z,101455.50
2023-06-29T23:22:04.028Z,101515.31
2023-06-29T23:24:30.993Z,101426.31
2023-06-29T23:26:57.938Z,101523.47
2023-06-29T23:29:24.500Z,101527.25
2023-06-29T23:31:54.916Z,101495.44
2023-06-29T23:34:23.771Z,101515.25
2023-06-29T23:36:53.419Z,101506.47
2023-06-29T23:39:20.984Z,101485.84
2023-06-29T23:41:47.660Z,101497.75
2023-06-29T23:44:14.733Z,101507.25
2023-06-29T23:46:44.694Z,101508.28
2023-06-29T23:49:13.190Z,101484.06
2023-06-29T23:51:40.051Z,101492.66
2023-06-29T23:54:11.170Z,101509.03
2023-06-29T23:56:41.492Z,101505.28
2023-06-29T23:59:11.919Z,101494.47
